Time;durP1;ratioP1;P1;durP2;ratioP2;P2;SDS_P1;SDS_P2;PMS_P1;PMS_P2;Temp;Humidity;BMP_temperature;BMP_pressure;BME280_temperature;BME280_humidity;BME280_pressure;Samples;Min_cycle;Max_cycle;Signal;HPM_P1;HPM_P2
2022/01/20 00:00:14;;;;;;;17.13;2.80;;;;;;;;;;5015867;28;20094;-48
2022/01/20 00:02:39;;;;;;;10.77;2.30;;;;;;;;;;5016100;28;20032;-47
2022/01/20 00:05:27;;;;;;;15.30;2.70;;;;;;;;;;5016215;28;20112;-48
2022/01/20 00:26:52;;;;;;;19.30;3.22;;;;;;;;;;5016187;28;20045;-50
2022/01/20 00:29:27;;;;;;;19.80;4.28;;;;;;;;;;5015834;28;20026;-50
2022/01/20 00:32:11;;;;;;;28.25;3.50;;;;;;;;;;5015887;28;20037;-48
2022/01/20 00:35:25;;;;;;;25.63;3.45;;;;;;;;;;5015680;28;20022;-48
2022/01/20 00:37:23;;;;;;;19.70;4.05;;;;;;;;;;5001641;28;20030;-49
2022/01/20 00:39:48;;;;;;;24.65;3.95;;;;;;;;;;5015529;28;20048;-51
2022/01/20 00:42:17;;;;;;;16.52;3.60;;;;;;;;;;5015525;28;20484;-49
2022/01/20 00:44:46;;;;;;;20.73;3.45;;;;;;;;;;5015429;28;20487;-50
2022/01/20 00:47:21;;;;;;;28.48;4.03;;;;;;;;;;5015416;28;20469;-48
2022/01/20 00:49:47;;;;;;;22.65;3.90;;;;;;;;;;5015451;28;20013;-50
2022/01/20 00:52:12;;;;;;;18.33;3.60;;;;;;;;;;5015419;28;20092;-51
2022/01/20 00:54:37;;;;;;;20.60;3.17;;;;;;;;;;5015348;28;20038;-48
2022/01/20 00:57:03;;;;;;;29.67;2.83;;;;;;;;;;5015253;28;20076;-51
2022/01/20 00:59:31;;;;;;;8.90;2.42;;;;;;;;;;5015202;28;20021;-50
2022/01/20 01:02:00;;;;;;;15.73;2.70;;;;;;;;;;5015206;28;20014;-48
2022/01/20 01:04:36;;;;;;;13.60;2.42;;;;;;;;;;5014886;28;20026;-48
2022/01/20 01:09:38;;;;;;;15.38;2.45;;;;;;;;;;5014943;28;20129;-47
2022/01/20 01:12:06;;;;;;;10.75;1.90;;;;;;;;;;5014904;28;20087;-48
2022/01/20 01:14:33;;;;;;;17.77;2.17;;;;;;;;;;5015141;28;20064;-49
2022/01/20 01:24:39;;;;;;;15.23;2.78;;;;;;;;;;5014821;28;20021;-50
2022/01/20 01:27:05;;;;;;;8.80;1.48;;;;;;;;;;5014792;28;20049;-51
2022/01/20 01:31:58;;;;;;;15.98;2.92;;;;;;;;;;5014683;28;20026;-47
2022/01/20 01:34:28;;;;;;;13.55;2.22;;;;;;;;;;5014675;28;20017;-47
2022/01/20 01:39:24;;;;;;;12.07;2.08;;;;;;;;;;5014657;28;20026;-50
2022/01/20 01:41:52;;;;;;;13.25;3.25;;;;;;;;;;5014512;28;20014;-48
2022/01/20 01:44:27;;;;;;;7.40;1.90;;;;;;;;;;5015092;28;20436;-49
2022/01/20 01:46:53;;;;;;;8.93;1.80;;;;;;;;;;5014610;28;20084;-48
2022/01/20 01:49:19;;;;;;;9.15;2.13;;;;;;;;;;5014607;28;20051;-48
2022/01/20 01:51:44;;;;;;;10.60;2.75;;;;;;;;;;5014528;28;20025;-48
2022/01/20 01:54:14;;;;;;;15.20;2.03;;;;;;;;;;5014465;28;20022;-48
2022/01/20 01:56:42;;;;;;;9.80;1.90;;;;;;;;;;5014447;28;20370;-48
2022/01/20 01:59:08;;;;;;;11.50;1.90;;;;;;;;;;5014390;28;20029;-48
2022/01/20 02:01:36;;;;;;;13.05;2.00;;;;;;;;;;5014337;28;20217;-49
2022/01/20 02:04:12;;;;;;;10.32;1.88;;;;;;;;;;5014422;28;20535;-50
2022/01/20 02:18:12;;;;;;;;;;;;;;;;;;;;;
2022/01/20 02:20:27;;;;;;;14.38;1.73;;;;;;;;;;5014095;28;20026;-48
2022/01/20 02:22:52;;;;;;;7.75;1.40;;;;;;;;;;5014147;28;20101;-49
2022/01/20 02:25:24;;;;;;;17.77;3.40;;;;;;;;;;5017311;28;20465;-48
2022/01/20 02:27:49;;;;;;;9.38;1.52;;;;;;;;;;5018147;28;20030;-50
2022/01/20 02:30:18;;;;;;;5.85;1.48;;;;;;;;;;5018072;28;20014;-48
2022/01/20 02:32:52;;;;;;;6.50;1.30;;;;;;;;;;5017933;28;20038;-49
2022/01/20 02:35:17;;;;;;;9.45;1.65;;;;;;;;;;5017972;28;20030;-48
2022/01/20 02:37:43;;;;;;;7.97;1.55;;;;;;;;;;5017924;28;20018;-49
2022/01/20 02:40:34;;;;;;;7.40;1.42;;;;;;;;;;5017673;28;20181;-49
2022/01/20 02:45:43;;;;;;;6.10;1.02;;;;;;;;;;5018041;28;20052;-49
2022/01/20 02:48:14;;;;;;;7.70;1.20;;;;;;;;;;5017793;28;20026;-50
2022/01/20 02:50:39;;;;;;;10.73;2.38;;;;;;;;;;5017732;28;20427;-48
2022/01/20 02:53:04;;;;;;;10.68;1.75;;;;;;;;;;5017671;28;20113;-49
2022/01/20 02:55:36;;;;;;;13.82;1.73;;;;;;;;;;5017647;28;20026;-48
2022/01/20 02:58:01;;;;;;;10.40;1.58;;;;;;;;;;5017464;28;20449;-49
2022/01/20 03:00:26;;;;;;;15.15;3.65;;;;;;;;;;5017424;28;20025;-49
2022/01/20 03:02:56;;;;;;;9.98;2.00;;;;;;;;;;5017484;28;20037;-49
2022/01/20 03:05:24;;;;;;;21.67;3.00;;;;;;;;;;5017270;28;20457;-52
2022/01/20 03:07:54;;;;;;;12.05;1.83;;;;;;;;;;5017412;28;20413;-48
2022/01/20 03:10:22;;;;;;;18.20;2.65;;;;;;;;;;5017082;28;20409;-49
2022/01/20 03:12:47;;;;;;;11.60;2.72;;;;;;;;;;5017520;28;20022;-50
2022/01/20 03:15:20;;;;;;;11.82;1.90;;;;;;;;;;5017379;28;20021;-48
2022/01/20 03:17:46;;;;;;;14.10;2.90;;;;;;;;;;5017097;28;20109;-50
2022/01/20 03:20:11;;;;;;;9.90;1.98;;;;;;;;;;5017212;28;20109;-49
2022/01/20 03:22:36;;;;;;;12.13;2.03;;;;;;;;;;5017075;28;20014;-51
2022/01/20 03:25:02;;;;;;;10.85;2.05;;;;;;;;;;5017012;28;20054;-49
2022/01/20 03:27:27;;;;;;;13.13;1.85;;;;;;;;;;5016964;28;20060;-49
2022/01/20 03:29:52;;;;;;;23.52;3.25;;;;;;;;;;5016936;28;20030;-49
2022/01/20 03:32:17;;;;;;;15.90;2.85;;;;;;;;;;5016915;28;20022;-49
2022/01/20 03:34:43;;;;;;;12.30;2.25;;;;;;;;;;5016899;28;20388;-48
2022/01/20 03:37:08;;;;;;;14.80;1.83;;;;;;;;;;5016959;28;20377;-48
2022/01/20 03:39:33;;;;;;;14.90;2.33;;;;;;;;;;5016764;28;20033;-49
2022/01/20 03:42:01;;;;;;;19.17;2.58;;;;;;;;;;5016724;28;20457;-49
2022/01/20 03:44:30;;;;;;;9.38;2.40;;;;;;;;;;5016879;28;20487;-51
2022/01/20 03:46:57;;;;;;;14.77;3.20;;;;;;;;;;5016645;28;20144;-51
2022/01/20 03:49:53;;;;;;;12.57;2.47;;;;;;;;;;5016704;28;20029;-49
2022/01/20 03:52:14;;;;;;;11.95;1.95;;;;;;;;;;5015370;28;20025;-49
2022/01/20 03:54:42;;;;;;;12.60;2.28;;;;;;;;;;5016450;28;20482;-48
2022/01/20 03:57:10;;;;;;;13.95;1.85;;;;;;;;;;5016549;28;20029;-49
2022/01/20 03:59:38;;;;;;;16.42;2.80;;;;;;;;;;5016264;28;20105;-49
2022/01/20 04:02:06;;;;;;;19.08;2.95;;;;;;;;;;5016309;28;20041;-50
2022/01/20 04:04:31;;;;;;;15.13;2.10;;;;;;;;;;5016358;28;20021;-51
2022/01/20 04:06:57;;;;;;;13.27;3.00;;;;;;;;;;5016232;28;20021;-49
2022/01/20 04:09:22;;;;;;;15.07;2.15;;;;;;;;;;5016009;28;20046;-49
2022/01/20 04:11:49;;;;;;;20.67;3.20;;;;;;;;;;5016259;28;20021;-50
2022/01/20 04:14:17;;;;;;;14.55;2.95;;;;;;;;;;5016196;28;20034;-49
2022/01/20 04:17:00;;;;;;;17.52;2.35;;;;;;;;;;5017011;28;20015;-47
2022/01/20 04:19:30;;;;;;;15.63;2.10;;;;;;;;;;5016100;28;20022;-49
2022/01/20 04:21:56;;;;;;;18.30;2.53;;;;;;;;;;5016129;28;20018;-48
2022/01/20 04:24:21;;;;;;;20.52;3.15;;;;;;;;;;5015941;28;20022;-48
2022/01/20 04:26:47;;;;;;;15.45;2.75;;;;;;;;;;5016026;28;20105;-47
2022/01/20 04:29:12;;;;;;;18.90;4.03;;;;;;;;;;5015867;28;20509;-48
2022/01/20 04:31:39;;;;;;;21.52;3.83;;;;;;;;;;5015778;28;20437;-46
2022/01/20 04:34:05;;;;;;;28.45;3.55;;;;;;;;;;5015777;28;20104;-47
2022/01/20 04:36:33;;;;;;;23.42;3.65;;;;;;;;;;5015860;28;20030;-49
2022/01/20 04:39:00;;;;;;;25.25;3.92;;;;;;;;;;5015603;28;20025;-48
2022/01/20 04:41:28;;;;;;;18.98;3.20;;;;;;;;;;5015642;28;20022;-48
2022/01/20 04:43:53;;;;;;;24.83;6.18;;;;;;;;;;5015530;28;20022;-49
2022/01/20 04:46:31;;;;;;;16.25;3.63;;;;;;;;;;5015074;28;20033;-49
2022/01/20 04:57:22;;;;;;;14.82;2.70;;;;;;;;;;5015688;28;20037;-48
2022/01/20 04:59:51;;;;;;;12.93;3.08;;;;;;;;;;5014740;28;20077;-48
2022/01/20 05:02:17;;;;;;;13.20;2.10;;;;;;;;;;5015261;28;20109;-49
2022/01/20 05:04:42;;;;;;;11.75;2.35;;;;;;;;;;5015165;28;20135;-49
2022/01/20 05:07:29;;;;;;;13.75;2.58;;;;;;;;;;5015189;28;20017;-49
2022/01/20 05:09:56;;;;;;;5.97;2.03;;;;;;;;;;5014488;28;20069;-48
2022/01/20 05:12:28;;;;;;;9.73;1.48;;;;;;;;;;5015132;28;20025;-48
2022/01/20 05:14:54;;;;;;;11.70;1.65;;;;;;;;;;5015119;28;20026;-48
2022/01/20 05:17:23;;;;;;;12.80;1.70;;;;;;;;;;5015076;28;20104;-48
2022/01/20 05:19:50;;;;;;;14.30;1.73;;;;;;;;;;5014797;28;20020;-51
2022/01/20 05:22:15;;;;;;;11.65;1.42;;;;;;;;;;5015029;28;20465;-50
2022/01/20 05:24:45;;;;;;;10.25;1.40;;;;;;;;;;5014761;28;20021;-52
2022/01/20 05:27:11;;;;;;;11.95;1.77;;;;;;;;;;5014926;28;20083;-52
2022/01/20 05:29:36;;;;;;;13.70;2.08;;;;;;;;;;5014849;28;20027;-50
2022/01/20 05:32:01;;;;;;;15.13;1.95;;;;;;;;;;5014928;28;20084;-49
2022/01/20 05:34:26;;;;;;;6.45;1.38;;;;;;;;;;5014846;28;20020;-51
2022/01/20 05:36:52;;;;;;;5.82;1.35;;;;;;;;;;5014815;28;20024;-51
2022/01/20 05:39:17;;;;;;;7.82;1.90;;;;;;;;;;5014587;28;20026;-51
2022/01/20 05:41:43;;;;;;;8.15;1.50;;;;;;;;;;5014715;28;20014;-49
2022/01/20 05:44:08;;;;;;;16.40;2.53;;;;;;;;;;5014759;28;20025;-51
2022/01/20 05:46:37;;;;;;;12.40;2.55;;;;;;;;;;5014582;28;20069;-49
2022/01/20 05:49:09;;;;;;;12.88;2.20;;;;;;;;;;5014561;28;20487;-50
2022/01/20 05:51:38;;;;;;;9.88;1.73;;;;;;;;;;5014593;28;20079;-50
2022/01/20 05:54:06;;;;;;;19.63;2.70;;;;;;;;;;5014483;28;20029;-48
2022/01/20 05:56:31;;;;;;;14.32;2.30;;;;;;;;;;5014314;28;20025;-49
2022/01/20 05:58:57;;;;;;;19.67;2.65;;;;;;;;;;5013593;28;20507;-50
2022/01/20 06:01:22;;;;;;;10.65;2.75;;;;;;;;;;4996836;28;20500;-51
2022/01/20 06:03:47;;;;;;;13.48;2.50;;;;;;;;;;5014439;28;20373;-48
2022/01/20 06:06:13;;;;;;;13.50;2.60;;;;;;;;;;4996751;28;20018;-48
2022/01/20 06:08:39;;;;;;;16.00;2.92;;;;;;;;;;5014264;28;20469;-49
2022/01/20 06:11:04;;;;;;;14.77;2.45;;;;;;;;;;5014061;28;20156;-50
2022/01/20 06:13:30;;;;;;;17.27;2.88;;;;;;;;;;5014316;28;20018;-48
2022/01/20 06:15:58;;;;;;;18.17;2.97;;;;;;;;;;5014153;28;20022;-48
2022/01/20 06:18:23;;;;;;;22.95;2.97;;;;;;;;;;5014437;28;20022;-48
2022/01/20 06:20:48;;;;;;;24.15;3.55;;;;;;;;;;5014121;28;20029;-47
2022/01/20 06:23:14;;;;;;;15.90;2.78;;;;;;;;;;5013272;28;20022;-49
2022/01/20 06:25:41;;;;;;;14.32;3.42;;;;;;;;;;5008540;28;20382;-49
2022/01/20 06:28:06;;;;;;;19.40;3.88;;;;;;;;;;5013123;28;20033;-48
2022/01/20 06:30:32;;;;;;;17.50;2.88;;;;;;;;;;5012574;28;20030;-49
2022/01/20 06:32:58;;;;;;;19.10;4.22;;;;;;;;;;5010092;28;20377;-51
2022/01/20 06:35:23;;;;;;;15.15;2.85;;;;;;;;;;5017428;28;20026;-50
2022/01/20 06:37:49;;;;;;;20.65;4.65;;;;;;;;;;5011755;28;20022;-48
2022/01/20 06:40:14;;;;;;;12.57;2.67;;;;;;;;;;5011837;28;20511;-51
2022/01/20 06:42:40;;;;;;;22.23;4.15;;;;;;;;;;5012045;28;20022;-50
2022/01/20 06:45:10;;;;;;;11.45;3.28;;;;;;;;;;5005983;28;20034;-50
2022/01/20 06:47:38;;;;;;;19.45;3.42;;;;;;;;;;5005683;28;20400;-52
2022/01/20 06:50:04;;;;;;;23.50;3.63;;;;;;;;;;5003121;28;20022;-49
2022/01/20 06:52:36;;;;;;;18.30;3.08;;;;;;;;;;5006005;28;20084;-50
2022/01/20 06:55:10;;;;;;;21.80;3.35;;;;;;;;;;5004412;28;20014;-50
2022/01/20 06:57:35;;;;;;;20.20;2.72;;;;;;;;;;5005302;28;20018;-53
2022/01/20 07:00:01;;;;;;;19.42;3.05;;;;;;;;;;5002310;28;20084;-48
2022/01/20 07:02:32;;;;;;;13.05;2.45;;;;;;;;;;4999634;28;20576;-49
2022/01/20 07:04:57;;;;;;;;;;;;;;;;;;4996366;28;20463;-49
2022/01/20 07:07:25;;;;;;;16.92;3.05;;;;;;;;;;4990822;28;19918;-50
2022/01/20 07:09:50;;;;;;;12.65;3.60;;;;;;;;;;4984995;28;20077;-49
2022/01/20 07:12:15;;;;;;;19.13;4.32;;;;;;;;;;4985863;28;20109;-52
2022/01/20 07:14:41;;;;;;;18.40;3.10;;;;;;;;;;4963920;28;20029;-51
2022/01/20 07:17:06;;;;;;;12.38;2.92;;;;;;;;;;4934879;28;21760;-52
2022/01/20 07:19:37;;;;;;;17.50;3.67;;;;;;;;;;4908729;28;20798;-50
2022/01/20 07:22:02;;;;;;;17.00;3.72;;;;;;;;;;4896509;28;20152;-52
2022/01/20 07:24:33;;;;;;;14.38;2.55;;;;;;;;;;4871178;28;20030;-47
2022/01/20 07:27:01;;;;;;;18.75;3.38;;;;;;;;;;4893276;28;23137;-50
2022/01/20 07:29:26;;;;;;;21.90;2.88;;;;;;;;;;4914983;28;20292;-50
2022/01/20 07:31:52;;;;;;;15.65;2.47;;;;;;;;;;4930595;28;20180;-52
2022/01/20 07:34:17;;;;;;;16.85;3.50;;;;;;;;;;4942595;28;20030;-52
2022/01/20 07:36:42;;;;;;;7.95;2.13;;;;;;;;;;4945873;28;20474;-53
2022/01/20 07:39:08;;;;;;;13.13;2.22;;;;;;;;;;4953342;28;20112;-50
2022/01/20 07:41:36;;;;;;;13.20;2.25;;;;;;;;;;4949122;28;20084;-50
2022/01/20 07:44:04;;;;;;;23.33;3.00;;;;;;;;;;4942388;28;20025;-48
2022/01/20 07:46:29;;;;;;;12.63;2.05;;;;;;;;;;4941113;28;20554;-48
2022/01/20 07:48:54;;;;;;;9.73;2.92;;;;;;;;;;4935171;28;20025;-50
2022/01/20 07:51:20;;;;;;;8.40;2.00;;;;;;;;;;4932899;28;20037;-51
2022/01/20 07:53:45;;;;;;;14.85;3.20;;;;;;;;;;4936183;28;20033;-53
2022/01/20 07:56:14;;;;;;;10.90;2.10;;;;;;;;;;4932890;28;20149;-49
2022/01/20 07:58:39;;;;;;;13.32;2.20;;;;;;;;;;4929787;28;20041;-48
2022/01/20 08:01:05;;;;;;;13.48;2.22;;;;;;;;;;4913914;28;20041;-49
2022/01/20 08:03:30;;;;;;;13.07;2.35;;;;;;;;;;4893075;28;20072;-50
2022/01/20 08:05:55;;;;;;;13.80;2.65;;;;;;;;;;4883569;28;20148;-50
2022/01/20 08:08:20;;;;;;;14.77;2.58;;;;;;;;;;4883741;28;20109;-52
2022/01/20 08:10:46;;;;;;;15.38;2.63;;;;;;;;;;4842795;28;20058;-50
2022/01/20 08:13:11;;;;;;;19.63;3.70;;;;;;;;;;4838029;28;20089;-49
2022/01/20 08:15:39;;;;;;;9.98;2.03;;;;;;;;;;4811347;28;20038;-50
2022/01/20 08:18:06;;;;;;;16.73;2.50;;;;;;;;;;4842203;28;20033;-52
2022/01/20 08:20:36;;;;;;;9.40;2.08;;;;;;;;;;4885894;28;20030;-52
2022/01/20 08:23:01;;;;;;;10.77;2.08;;;;;;;;;;4885509;28;20064;-51
2022/01/20 08:25:30;;;;;;;14.18;2.03;;;;;;;;;;4850496;28;20036;-49
2022/01/20 08:28:00;;;;;;;8.93;1.35;;;;;;;;;;4854406;28;20026;-48
2022/01/20 08:30:25;;;;;;;;;;;;;;;;;;4880497;28;20056;-50
2022/01/20 08:32:51;;;;;;;9.97;1.50;;;;;;;;;;4898525;28;19917;-51
2022/01/20 08:35:17;;;;;;;14.15;2.60;;;;;;;;;;4902320;28;20311;-54
2022/01/20 08:37:48;;;;;;;9.10;2.20;;;;;;;;;;4910787;28;20038;-54
2022/01/20 08:40:15;;;;;;;15.65;2.70;;;;;;;;;;4910341;28;20167;-51
2022/01/20 08:42:44;;;;;;;11.00;2.50;;;;;;;;;;4915775;28;20072;-48
2022/01/20 08:45:10;;;;;;;7.70;2.33;;;;;;;;;;4922471;28;20776;-51
2022/01/20 08:47:36;;;;;;;11.05;2.15;;;;;;;;;;4915218;28;20276;-49
2022/01/20 08:50:05;;;;;;;4.82;1.52;;;;;;;;;;4919646;28;20069;-50
2022/01/20 08:52:31;;;;;;;10.55;2.20;;;;;;;;;;4923301;28;20026;-49
2022/01/20 08:54:59;;;;;;;7.43;2.10;;;;;;;;;;4907016;28;20038;-48
2022/01/20 08:57:25;;;;;;;10.35;2.00;;;;;;;;;;4915823;28;23698;-52
2022/01/20 08:59:51;;;;;;;11.35;2.00;;;;;;;;;;4904801;28;20070;-49
2022/01/20 09:02:21;;;;;;;12.40;2.17;;;;;;;;;;4883865;28;22030;-51
2022/01/20 09:04:46;;;;;;;;;;;;;;;;;;4902420;28;20026;-49
2022/01/20 09:07:12;;;;;;;9.20;1.60;;;;;;;;;;4906190;28;20635;-49
2022/01/20 09:09:42;;;;;;;6.72;1.70;;;;;;;;;;4907554;28;22985;-49
2022/01/20 09:17:24;;;;;;;11.25;2.13;;;;;;;;;;4775459;28;20156;-48
2022/01/20 09:19:50;;;;;;;;;;;;;;;;;;4829060;28;20795;-50
2022/01/20 09:22:15;;;;;;;10.05;2.47;;;;;;;;;;4825725;28;21563;-50
2022/01/20 09:24:40;;;;;;;10.15;2.17;;;;;;;;;;4805828;28;20026;-50
2022/01/20 09:27:05;;;;;;;10.02;2.55;;;;;;;;;;4747253;28;20030;-49
2022/01/20 09:29:31;;;;;;;10.73;2.35;;;;;;;;;;4813147;28;20026;-50
2022/01/20 09:31:56;;;;;;;12.73;2.05;;;;;;;;;;4884838;28;21797;-50
2022/01/20 09:34:24;;;;;;;12.98;2.95;;;;;;;;;;4868272;28;20032;-51
2022/01/20 09:36:49;;;;;;;17.35;2.85;;;;;;;;;;4876313;28;20057;-50
2022/01/20 09:39:14;;;;;;;15.75;2.78;;;;;;;;;;4883952;28;20049;-51
2022/01/20 09:41:40;;;;;;;12.85;2.45;;;;;;;;;;4882659;28;20072;-50
2022/01/20 09:44:10;;;;;;;14.13;2.58;;;;;;;;;;4897983;28;20021;-50
2022/01/20 09:46:37;;;;;;;15.43;2.00;;;;;;;;;;4885039;28;20057;-49
2022/01/20 09:49:05;;;;;;;14.93;2.78;;;;;;;;;;4901179;28;20022;-52
2022/01/20 09:51:30;;;;;;;11.70;2.70;;;;;;;;;;4893568;28;20794;-50
2022/01/20 09:53:55;;;;;;;11.85;2.72;;;;;;;;;;4901288;28;21193;-49
2022/01/20 09:56:21;;;;;;;14.50;3.50;;;;;;;;;;4894141;28;20673;-52
2022/01/20 09:58:46;;;;;;;18.23;3.00;;;;;;;;;;4877127;28;20030;-51
2022/01/20 10:01:11;;;;;;;20.17;2.92;;;;;;;;;;4884571;28;20481;-50
2022/01/20 10:03:38;;;;;;;15.40;2.67;;;;;;;;;;4893183;28;20028;-49
2022/01/20 10:06:06;;;;;;;18.23;3.30;;;;;;;;;;4877471;28;20175;-49
2022/01/20 10:08:32;;;;;;;14.23;2.75;;;;;;;;;;4876314;28;20180;-51
2022/01/20 10:11:16;;;;;;;15.55;2.38;;;;;;;;;;4892523;28;20857;-52
2022/01/20 10:13:42;;;;;;;12.63;3.53;;;;;;;;;;4881877;28;20064;-49
2022/01/20 10:16:12;;;;;;;15.23;2.47;;;;;;;;;;4900236;28;20464;-51
2022/01/20 10:18:48;;;;;;;12.88;2.42;;;;;;;;;;4884543;28;20095;-49
2022/01/20 10:21:13;;;;;;;15.15;2.50;;;;;;;;;;4870716;28;20046;-52
2022/01/20 10:23:48;;;;;;;12.10;2.67;;;;;;;;;;4779856;28;20095;-50
2022/01/20 10:26:16;;;;;;;13.23;2.38;;;;;;;;;;4763029;28;20152;-51
2022/01/20 10:28:47;;;;;;;14.27;3.08;;;;;;;;;;4841639;28;20618;-51
2022/01/20 10:31:12;;;;;;;15.13;2.25;;;;;;;;;;4848515;28;21053;-50
2022/01/20 10:33:40;;;;;;;14.70;2.55;;;;;;;;;;4847854;28;20033;-50
2022/01/20 10:36:10;;;;;;;15.05;3.30;;;;;;;;;;4864786;28;20041;-49
2022/01/20 10:38:57;;;;;;;12.87;3.00;;;;;;;;;;4882574;28;20148;-51
2022/01/20 10:41:48;;;;;;;19.75;2.97;;;;;;;;;;4915825;28;22338;-49
2022/01/20 10:44:16;;;;;;;15.75;2.75;;;;;;;;;;4911366;28;20912;-51
2022/01/20 10:46:43;;;;;;;14.25;2.47;;;;;;;;;;4946470;28;20487;-51
2022/01/20 10:49:09;;;;;;;11.23;2.50;;;;;;;;;;4946074;28;20038;-50
2022/01/20 10:51:34;;;;;;;10.95;2.70;;;;;;;;;;4950565;28;20788;-50
2022/01/20 10:54:00;;;;;;;17.88;2.42;;;;;;;;;;4958539;28;20069;-52
2022/01/20 10:56:26;;;;;;;13.85;2.97;;;;;;;;;;4954708;28;20026;-50
2022/01/20 10:58:52;;;;;;;14.73;2.25;;;;;;;;;;4946985;28;20034;-51
2022/01/20 11:01:17;;;;;;;16.42;2.97;;;;;;;;;;4916372;28;20036;-52
2022/01/20 11:03:43;;;;;;;14.27;3.00;;;;;;;;;;4941886;23;20517;-83
2022/01/20 11:06:08;;;;;;;11.07;2.53;;;;;;;;;;4951997;28;20089;-83
2022/01/20 11:08:38;;;;;;;17.50;3.03;;;;;;;;;;4964284;28;20034;-83
2022/01/20 11:11:03;;;;;;;13.82;2.67;;;;;;;;;;4961864;28;20070;-83
2022/01/20 11:13:31;;;;;;;12.65;2.47;;;;;;;;;;4968916;28;20104;-83
2022/01/20 11:15:57;;;;;;;15.15;2.72;;;;;;;;;;4962642;28;20026;-84
2022/01/20 11:18:29;;;;;;;14.43;2.92;;;;;;;;;;4967286;28;20078;-84
2022/01/20 11:20:56;;;;;;;14.55;2.78;;;;;;;;;;4966817;28;20030;-83
2022/01/20 11:23:37;;;;;;;10.82;2.83;;;;;;;;;;4971383;28;20057;-83
2022/01/20 11:26:06;;;;;;;14.10;2.42;;;;;;;;;;4972714;28;20023;-84
2022/01/20 11:28:32;;;;;;;9.98;2.22;;;;;;;;;;4952027;28;20080;-84
2022/01/20 11:30:58;;;;;;;9.65;2.35;;;;;;;;;;4971209;28;20030;-82
2022/01/20 11:33:37;;;;;;;14.43;3.10;;;;;;;;;;4979931;28;20041;-85
2022/01/20 11:36:08;;;;;;;9.55;2.38;;;;;;;;;;4998030;28;20427;-84
2022/01/20 11:38:36;;;;;;;12.65;2.25;;;;;;;;;;4996005;28;20029;-84
2022/01/20 11:41:03;;;;;;;11.00;1.92;;;;;;;;;;4983286;28;20153;-84
2022/01/20 11:43:32;;;;;;;12.57;2.00;;;;;;;;;;4973107;28;20488;-84
2022/01/20 11:46:02;;;;;;;10.40;2.10;;;;;;;;;;4972067;28;20054;-83
2022/01/20 11:48:31;;;;;;;6.28;1.70;;;;;;;;;;4969509;28;20030;-84
2022/01/20 11:51:06;;;;;;;10.50;2.08;;;;;;;;;;4967253;28;20034;-83
2022/01/20 11:53:41;;;;;;;15.05;2.47;;;;;;;;;;4975547;28;20026;-83
2022/01/20 11:56:06;;;;;;;10.50;2.42;;;;;;;;;;4977459;28;20082;-83
2022/01/20 11:58:31;;;;;;;12.95;2.63;;;;;;;;;;4972748;28;20038;-83
2022/01/20 12:01:30;;;;;;;13.80;2.65;;;;;;;;;;4969571;28;20549;-82
2022/01/20 12:03:57;;;;;;;13.73;2.78;;;;;;;;;;4901271;28;20062;-83
2022/01/20 12:06:24;;;;;;;12.80;1.88;;;;;;;;;;4951908;28;20018;-83
2022/01/20 12:08:53;;;;;;;7.13;1.77;;;;;;;;;;4952609;28;20027;-85
2022/01/20 12:11:18;;;;;;;10.95;1.85;;;;;;;;;;4958676;28;22456;-83
2022/01/20 12:13:50;;;;;;;17.52;3.03;;;;;;;;;;4954656;28;20030;-83
2022/01/20 12:16:19;;;;;;;10.60;2.15;;;;;;;;;;4962563;28;20037;-84
2022/01/20 12:18:58;;;;;;;14.05;2.20;;;;;;;;;;4971616;28;20109;-83
2022/01/20 12:21:26;;;;;;;12.25;2.58;;;;;;;;;;4977047;28;20030;-83
2022/01/20 12:23:53;;;;;;;14.32;2.97;;;;;;;;;;4977191;28;20114;-83
2022/01/20 12:26:18;;;;;;;18.52;3.03;;;;;;;;;;4976503;28;20049;-83
2022/01/20 12:28:44;;;;;;;22.42;3.47;;;;;;;;;;4972930;28;22584;-83
2022/01/20 12:31:11;;;;;;;12.02;2.25;;;;;;;;;;4991323;28;20026;-84
2022/01/20 12:33:42;;;;;;;17.70;2.60;;;;;;;;;;4983632;28;20054;-84
2022/01/20 12:36:07;;;;;;;;;;;;;;;;;;5000181;28;20023;-83
2022/01/20 12:38:39;;;;;;;10.82;1.75;;;;;;;;;;4994935;28;19917;-83
2022/01/20 12:41:07;;;;;;;16.13;2.78;;;;;;;;;;4979179;28;20026;-83
2022/01/20 12:43:43;;;;;;;15.77;2.95;;;;;;;;;;4995604;28;20346;-84
2022/01/20 12:46:10;;;;;;;12.30;2.28;;;;;;;;;;5000281;28;20030;-83
2022/01/20 12:48:35;;;;;;;14.80;2.78;;;;;;;;;;4999401;28;20083;-83
2022/01/20 12:51:09;;;;;;;14.93;2.60;;;;;;;;;;4998648;28;20045;-83
2022/01/20 12:53:40;;;;;;;10.00;2.40;;;;;;;;;;4995294;28;20069;-83
2022/01/20 12:56:10;;;;;;;11.05;2.35;;;;;;;;;;5000051;28;20030;-83
2022/01/20 12:58:51;;;;;;;11.05;3.15;;;;;;;;;;4987612;28;20026;-82
2022/01/20 13:01:20;;;;;;;10.65;2.55;;;;;;;;;;4997014;28;20486;-82
2022/01/20 13:03:45;;;;;;;9.13;1.40;;;;;;;;;;4996784;28;20401;-83
2022/01/20 13:06:20;;;;;;;8.30;1.63;;;;;;;;;;4999338;28;20102;-84
2022/01/20 13:08:55;;;;;;;10.93;1.55;;;;;;;;;;4998449;28;20029;-84
2022/01/20 13:11:27;;;;;;;11.75;2.78;;;;;;;;;;4994602;28;20073;-82
2022/01/20 13:13:52;;;;;;;8.00;1.50;;;;;;;;;;4994525;28;20035;-83
2022/01/20 13:16:18;;;;;;;9.88;1.30;;;;;;;;;;4998061;28;20030;-84
2022/01/20 13:18:56;;;;;;;6.50;1.42;;;;;;;;;;4997681;28;20029;-84
2022/01/20 13:21:35;;;;;;;12.20;1.73;;;;;;;;;;4999663;28;20034;-84
2022/01/20 13:24:02;;;;;;;10.82;2.47;;;;;;;;;;4999095;28;20029;-84
2022/01/20 13:26:27;;;;;;;9.25;1.83;;;;;;;;;;4993774;28;20359;-83
2022/01/20 13:28:57;;;;;;;9.45;2.00;;;;;;;;;;4998908;28;20109;-83
2022/01/20 13:31:22;;;;;;;9.50;1.50;;;;;;;;;;4996076;28;20029;-84
2022/01/20 13:33:47;;;;;;;13.02;2.47;;;;;;;;;;4999189;28;20198;-83
2022/01/20 13:36:13;;;;;;;14.35;4.32;;;;;;;;;;4999354;28;20019;-82
2022/01/20 13:38:45;;;;;;;8.23;2.25;;;;;;;;;;4994239;28;20030;-82
2022/01/20 13:41:12;;;;;;;17.65;2.53;;;;;;;;;;4993328;28;20352;-82
2022/01/20 13:46:36;;;;;;;5.82;1.55;;;;;;;;;;4991380;28;20033;-84
2022/01/20 13:49:10;;;;;;;8.95;1.50;;;;;;;;;;4992291;28;20014;-82
2022/01/20 13:51:35;;;;;;;9.23;1.63;;;;;;;;;;4995313;28;20014;-82
2022/01/20 13:54:01;;;;;;;8.25;2.13;;;;;;;;;;4997838;28;20017;-84
2022/01/20 13:56:26;;;;;;;10.15;1.60;;;;;;;;;;4994916;28;20018;-84
2022/01/20 13:59:01;;;;;;;11.23;1.73;;;;;;;;;;4994431;28;20022;-84
2022/01/20 14:01:29;;;;;;;13.18;1.48;;;;;;;;;;4994789;28;20023;-83
2022/01/20 14:03:57;;;;;;;8.63;1.63;;;;;;;;;;4993334;28;20469;-83
2022/01/20 14:06:22;;;;;;;12.20;2.00;;;;;;;;;;4994415;28;20015;-84
2022/01/20 14:08:48;;;;;;;10.43;1.70;;;;;;;;;;5006195;28;20029;-83
2022/01/20 14:11:14;;;;;;;6.43;1.90;;;;;;;;;;4999324;28;20030;-83
2022/01/20 14:13:39;;;;;;;12.27;1.70;;;;;;;;;;4998802;28;20077;-84
2022/01/20 14:16:04;;;;;;;11.32;2.33;;;;;;;;;;4998236;28;20386;-83
2022/01/20 14:18:41;;;;;;;11.07;1.70;;;;;;;;;;4998101;28;20033;-83
2022/01/20 14:21:08;;;;;;;8.00;1.50;;;;;;;;;;4999558;28;20073;-83
2022/01/20 14:23:33;;;;;;;7.95;1.40;;;;;;;;;;4998862;28;20046;-84
2022/01/20 14:26:01;;;;;;;10.32;2.13;;;;;;;;;;5002896;28;20015;-84
2022/01/20 14:28:26;;;;;;;6.80;1.33;;;;;;;;;;4984385;28;20483;-84
2022/01/20 14:30:51;;;;;;;6.93;1.50;;;;;;;;;;5002167;28;20018;-83
2022/01/20 14:33:17;;;;;;;17.48;2.38;;;;;;;;;;5003737;28;20026;-84
2022/01/20 14:35:45;;;;;;;7.70;2.05;;;;;;;;;;4981042;28;20022;-83
2022/01/20 14:38:10;;;;;;;9.02;1.25;;;;;;;;;;5005474;28;20092;-84
2022/01/20 14:40:36;;;;;;;8.82;1.80;;;;;;;;;;5002468;28;20023;-84
2022/01/20 14:43:01;;;;;;;14.05;2.10;;;;;;;;;;5002484;28;20046;-84
2022/01/20 14:45:26;;;;;;;8.02;1.50;;;;;;;;;;5002324;28;20454;-84
2022/01/20 14:47:59;;;;;;;10.48;1.80;;;;;;;;;;4984972;28;20042;-84
2022/01/20 14:50:27;;;;;;;7.25;2.00;;;;;;;;;;4999167;28;20022;-83
2022/01/20 14:52:56;;;;;;;12.35;2.17;;;;;;;;;;4994081;28;20089;-83
2022/01/20 14:55:22;;;;;;;12.82;2.00;;;;;;;;;;4998293;28;20022;-83
2022/01/20 14:57:47;;;;;;;9.55;1.52;;;;;;;;;;5000375;28;20553;-83
2022/01/20 15:00:15;;;;;;;5.53;1.92;;;;;;;;;;5002033;28;20515;-83
2022/01/20 15:02:40;;;;;;;9.13;2.15;;;;;;;;;;5001826;28;20025;-83
2022/01/20 15:05:09;;;;;;;12.18;1.98;;;;;;;;;;5002318;28;20042;-83
2022/01/20 15:07:34;;;;;;;7.40;1.45;;;;;;;;;;5002734;28;20046;-83
2022/01/20 15:10:00;;;;;;;4.53;1.42;;;;;;;;;;4996954;28;20035;-83
2022/01/20 15:12:31;;;;;;;9.10;1.70;;;;;;;;;;4999617;28;20021;-83
2022/01/20 15:14:56;;;;;;;7.70;1.65;;;;;;;;;;4999742;28;20026;-83
2022/01/20 15:17:22;;;;;;;7.13;1.77;;;;;;;;;;5002587;28;20032;-83
2022/01/20 15:19:47;;;;;;;7.13;1.30;;;;;;;;;;5003390;28;20026;-83
2022/01/20 15:22:13;;;;;;;11.65;2.25;;;;;;;;;;5000479;28;20042;-83
2022/01/20 15:24:38;;;;;;;9.45;1.90;;;;;;;;;;5001145;28;20022;-83
2022/01/20 15:27:03;;;;;;;12.43;2.08;;;;;;;;;;5004593;28;20036;-83
2022/01/20 15:29:29;;;;;;;12.40;2.03;;;;;;;;;;5001482;28;20101;-83
2022/01/20 15:31:54;;;;;;;12.50;2.25;;;;;;;;;;5005312;28;20371;-83
2022/01/20 15:34:19;;;;;;;10.25;1.65;;;;;;;;;;5011164;28;20032;-83
2022/01/20 15:36:51;;;;;;;11.43;2.05;;;;;;;;;;5004985;28;20026;-83
2022/01/20 15:39:16;;;;;;;7.82;1.85;;;;;;;;;;5016177;28;20017;-83
2022/01/20 15:41:43;;;;;;;8.20;1.70;;;;;;;;;;4986302;28;20096;-83
2022/01/20 15:44:08;;;;;;;12.02;1.77;;;;;;;;;;5003420;28;20026;-83